Time;durP1;ratioP1;P1;durP2;ratioP2;P2;SDS_P1;SDS_P2;PMS_P1;PMS_P2;Temp;Humidity;BMP_temperature;BMP_pressure;BME280_temperature;BME280_humidity;BME280_pressure;Samples;Min_cycle;Max_cycle;Signal;HPM_P1;HPM_P2
2023/06/09 00:01:44;;;;;;;7.63;5.33;;;18.60;65.70;;;;;;5198574;28;20610;-43
2023/06/09 00:04:15;;;;;;;7.10;5.20;;;18.60;66.10;;;;;;5184679;28;20242;-44
2023/06/09 00:06:46;;;;;;;7.40;5.20;;;18.60;66.70;;;;;;5209034;28;20175;-44
2023/06/09 00:09:17;;;;;;;5.30;4.83;;;18.50;67.50;;;;;;5198637;28;20823;-44
2023/06/09 00:11:49;;;;;;;8.30;6.00;;;18.50;67.90;;;;;;5206005;28;20803;-45
2023/06/09 00:14:20;;;;;;;7.27;4.90;;;18.50;68.70;;;;;;5197195;28;20783;-44
2023/06/09 00:16:51;;;;;;;6.57;5.60;;;18.40;70.10;;;;;;5203366;28;20659;-44
2023/06/09 00:19:24;;;;;;;7.03;5.60;;;18.30;71.30;;;;;;5202548;28;20521;-45
2023/06/09 00:21:54;;;;;;;9.17;5.10;;;18.30;72.60;;;;;;5183550;28;20709;-45
2023/06/09 00:24:25;;;;;;;7.13;5.13;;;18.30;73.20;;;;;;5183532;28;20454;-45
2023/06/09 00:26:56;;;;;;;4.70;4.30;;;18.30;74.30;;;;;;5186376;28;20233;-45
2023/06/09 00:29:26;;;;;;;5.47;4.83;;;18.20;75.30;;;;;;5194708;28;20714;-44
2023/06/09 00:31:57;;;;;;;5.67;5.00;;;18.20;76.60;;;;;;5199522;28;20190;-44
2023/06/09 00:34:28;;;;;;;5.03;4.57;;;18.20;77.50;;;;;;5192722;28;20214;-44
2023/06/09 00:37:00;;;;;;;10.30;5.00;;;18.10;78.70;;;;;;5204874;28;20229;-46
2023/06/09 00:39:31;;;;;;;7.00;5.10;;;18.10;80.30;;;;;;5207311;28;20467;-44
2023/06/09 00:42:01;;;;;;;7.27;4.97;;;18.10;81.20;;;;;;5181961;28;20282;-44
2023/06/09 00:44:32;;;;;;;6.57;5.10;;;18.10;82.10;;;;;;5208686;28;20234;-45
2023/06/09 00:47:04;;;;;;;5.50;4.87;;;18.10;83.40;;;;;;5201722;28;20276;-44
2023/06/09 00:49:35;;;;;;;8.33;5.60;;;18.00;84.80;;;;;;5192234;28;20207;-45
2023/06/09 00:52:06;;;;;;;5.90;4.70;;;18.00;86.60;;;;;;5202736;28;20466;-45
2023/06/09 00:54:38;;;;;;;5.67;5.00;;;18.00;87.60;;;;;;5183119;28;20219;-45
2023/06/09 00:57:10;;;;;;;9.53;5.83;;;18.00;89.20;;;;;;5202225;28;20939;-44
2023/06/09 00:59:41;;;;;;;6.70;5.13;;;17.90;90.00;;;;;;5191436;28;20426;-43
2023/06/09 01:02:12;;;;;;;14.73;6.13;;;17.90;90.80;;;;;;5204327;28;20418;-44
2023/06/09 01:04:49;;;;;;;5.93;5.33;;;17.90;91.30;;;;;;5211217;28;20187;-43
2023/06/09 01:07:38;;;;;;;7.10;5.50;;;17.90;91.70;;;;;;5192003;28;20442;-43
2023/06/09 01:10:20;;;;;;;6.20;4.93;;;17.90;92.10;;;;;;5193261;28;20446;-44
2023/06/09 01:13:05;;;;;;;7.97;5.30;;;17.90;93.00;;;;;;5205430;28;20477;-45
2023/06/09 01:15:43;;;;;;;5.43;4.93;;;17.90;93.40;;;;;;5212904;28;20453;-44
2023/06/09 01:18:17;;;;;;;6.57;5.67;;;17.80;94.10;;;;;;5202375;28;20477;-44
2023/06/09 01:21:32;;;;;;;11.33;6.60;;;17.70;94.50;;;;;;5200999;28;20954;-44
2023/06/09 01:24:15;;;;;;;8.57;6.80;;;17.70;95.10;;;;;;5202623;28;20529;-45
2023/06/09 01:26:50;;;;;;;6.47;5.73;;;17.70;95.70;;;;;;5200510;28;20446;-44
2023/06/09 01:29:22;;;;;;;5.83;5.30;;;17.70;96.10;;;;;;5205014;28;20418;-44
2023/06/09 01:31:54;;;;;;;9.47;5.97;;;17.60;96.20;;;;;;5209186;28;20442;-44
2023/06/09 01:34:25;;;;;;;11.13;6.30;;;17.60;96.90;;;;;;5208159;28;20552;-43
2023/06/09 01:36:57;;;;;;;12.40;6.47;;;17.60;97.30;;;;;;5195538;28;20581;-43
2023/06/09 01:39:28;;;;;;;14.80;7.60;;;17.50;97.90;;;;;;5197954;28;20521;-43
2023/06/09 01:41:59;;;;;;;6.90;5.80;;;17.50;98.30;;;;;;5182986;28;20562;-44
2023/06/09 01:44:29;;;;;;;13.50;6.10;;;17.50;99.00;;;;;;5204244;28;20257;-44
2023/06/09 01:47:01;;;;;;;15.40;7.30;;;17.50;99.40;;;;;;5209157;28;20190;-44
2023/06/09 01:49:40;;;;;;;13.07;7.70;;;17.50;99.70;;;;;;5212923;28;20278;-44
2023/06/09 01:52:41;;;;;;;15.10;6.50;;;17.50;99.90;;;;;;5211380;28;20521;-44
2023/06/09 01:55:20;;;;;;;17.73;7.17;;;17.50;99.90;;;;;;5194300;28;20484;-44
2023/06/09 01:57:59;;;;;;;6.87;6.10;;;17.50;99.90;;;;;;5197493;28;20441;-44
2023/06/09 02:00:31;;;;;;;8.83;6.37;;;17.40;99.90;;;;;;5207506;28;20469;-44
2023/06/09 02:03:05;;;;;;;8.20;6.13;;;17.40;99.90;;;;;;5192809;28;20443;-44
2023/06/09 02:05:36;;;;;;;10.43;6.17;;;17.30;99.90;;;;;;5214285;28;21647;-44
2023/06/09 02:08:08;;;;;;;7.50;6.33;;;17.30;99.90;;;;;;5191237;28;20449;-43
2023/06/09 02:10:40;;;;;;;6.93;6.07;;;17.20;99.90;;;;;;5218076;28;21007;-44
2023/06/09 02:13:19;;;;;;;9.13;6.50;;;17.20;99.90;;;;;;5207253;28;20434;-45
2023/06/09 02:15:50;;;;;;;6.57;5.97;;;17.10;99.90;;;;;;5186901;28;20461;-44
2023/06/09 02:18:22;;;;;;;9.63;5.60;;;17.10;99.90;;;;;;5205162;28;20469;-44
2023/06/09 02:20:53;;;;;;;9.63;6.60;;;17.10;99.90;;;;;;5192100;28;20734;-44
2023/06/09 02:23:24;;;;;;;10.47;6.43;;;17.10;99.90;;;;;;5188723;28;20454;-44
2023/06/09 02:25:55;;;;;;;6.50;5.03;;;17.00;99.90;;;;;;5186258;28;20286;-44
2023/06/09 02:28:25;;;;;;;6.70;5.50;;;17.00;99.90;;;;;;5183503;28;20526;-45
2023/06/09 02:30:56;;;;;;;8.50;6.97;;;16.90;99.90;;;;;;5204883;28;20273;-44
2023/06/09 02:33:26;;;;;;;7.73;5.10;;;16.90;99.90;;;;;;5203846;28;20195;-44
2023/06/09 02:35:57;;;;;;;12.10;5.93;;;16.90;99.90;;;;;;5207496;28;20234;-44
2023/06/09 02:38:31;;;;;;;8.63;5.37;;;16.90;99.90;;;;;;5213176;28;20194;-44
2023/06/09 02:41:01;;;;;;;9.07;6.37;;;16.90;99.90;;;;;;5190257;28;20211;-44
2023/06/09 02:43:32;;;;;;;6.70;5.93;;;16.90;99.90;;;;;;5190187;28;20832;-45
2023/06/09 02:46:02;;;;;;;7.03;5.17;;;16.90;99.90;;;;;;5204330;28;20257;-43
2023/06/09 02:48:33;;;;;;;10.70;5.90;;;16.90;99.90;;;;;;5199236;28;20199;-43
2023/06/09 02:51:04;;;;;;;9.50;5.63;;;16.90;99.90;;;;;;5214285;28;20234;-44
2023/06/09 02:53:34;;;;;;;7.87;5.57;;;16.90;99.90;;;;;;5207177;28;20234;-43
2023/06/09 02:56:05;;;;;;;6.50;5.73;;;16.90;99.90;;;;;;5209813;28;20226;-44
2023/06/09 02:58:37;;;;;;;12.23;6.07;;;16.80;99.90;;;;;;5210193;28;20566;-43
2023/06/09 03:01:08;;;;;;;9.20;6.43;;;16.80;99.90;;;;;;5212649;28;20247;-44
2023/06/09 03:03:39;;;;;;;8.90;5.93;;;16.80;99.90;;;;;;5189355;28;20500;-44
2023/06/09 03:06:13;;;;;;;9.37;5.83;;;16.80;99.90;;;;;;5187534;28;20454;-44
2023/06/09 03:08:43;;;;;;;6.60;6.03;;;16.80;99.90;;;;;;5219092;28;20512;-44
2023/06/09 03:11:14;;;;;;;7.07;6.10;;;16.90;99.90;;;;;;5190285;28;20520;-44
2023/06/09 03:13:45;;;;;;;13.40;6.83;;;16.80;99.90;;;;;;5185467;28;20648;-44
2023/06/09 03:16:15;;;;;;;8.20;6.37;;;16.80;99.90;;;;;;5201755;28;20569;-44
2023/06/09 03:18:46;;;;;;;6.57;5.77;;;16.70;99.90;;;;;;5191782;28;20234;-44
2023/06/09 03:21:17;;;;;;;6.60;5.27;;;16.70;99.90;;;;;;5204703;28;20243;-44
2023/06/09 03:23:47;;;;;;;8.97;6.80;;;16.70;99.90;;;;;;5209687;28;20190;-45
2023/06/09 03:26:18;;;;;;;6.00;5.50;;;16.80;99.90;;;;;;5204730;28;20566;-44
2023/06/09 03:28:48;;;;;;;12.87;7.00;;;16.80;99.90;;;;;;5205304;28;20250;-44
2023/06/09 03:31:19;;;;;;;9.97;7.30;;;16.80;99.90;;;;;;5213559;28;20560;-44
2023/06/09 03:33:50;;;;;;;6.73;6.10;;;16.80;99.90;;;;;;5204261;28;20270;-44
2023/06/09 03:36:21;;;;;;;7.20;5.70;;;16.80;99.90;;;;;;5192543;28;20199;-44
2023/06/09 03:38:53;;;;;;;13.00;7.03;;;16.80;99.90;;;;;;5203996;28;20633;-43
2023/06/09 03:41:24;;;;;;;7.27;5.50;;;16.90;99.90;;;;;;5201540;28;20465;-44
2023/06/09 03:43:55;;;;;;;13.53;6.13;;;16.90;99.90;;;;;;5213965;28;20927;-44
2023/06/09 03:46:26;;;;;;;7.43;6.07;;;17.00;99.90;;;;;;5204942;28;20442;-43
2023/06/09 03:48:57;;;;;;;6.40;5.70;;;17.00;99.90;;;;;;5189074;28;20660;-44
2023/06/09 03:51:27;;;;;;;14.00;6.30;;;17.10;99.90;;;;;;5204898;28;20188;-44
2023/06/09 03:53:58;;;;;;;10.13;7.30;;;17.10;99.90;;;;;;5219172;28;20426;-45
2023/06/09 03:56:29;;;;;;;8.30;6.57;;;17.00;99.90;;;;;;5183981;28;20259;-44
2023/06/09 03:58:59;;;;;;;10.43;6.40;;;17.10;99.90;;;;;;5206060;28;20283;-44
2023/06/09 04:01:30;;;;;;;16.60;7.17;;;17.10;99.90;;;;;;5205200;28;20519;-45
2023/06/09 04:04:01;;;;;;;7.70;7.00;;;17.10;99.90;;;;;;5212970;28;20274;-44
2023/06/09 04:06:31;;;;;;;9.83;6.40;;;17.20;99.90;;;;;;5212408;28;20181;-44
2023/06/09 04:09:03;;;;;;;8.17;6.17;;;17.20;99.90;;;;;;5207684;28;20188;-44
2023/06/09 04:11:34;;;;;;;9.17;6.17;;;17.30;99.90;;;;;;5193253;28;20730;-44
2023/06/09 04:14:05;;;;;;;12.17;6.43;;;17.30;99.90;;;;;;5190622;28;20458;-45
2023/06/09 04:16:36;;;;;;;9.57;6.10;;;17.30;99.90;;;;;;5208809;28;20180;-44
2023/06/09 04:19:08;;;;;;;6.10;5.50;;;17.40;99.90;;;;;;5189541;28;20438;-45
2023/06/09 04:21:39;;;;;;;9.33;6.10;;;17.50;99.90;;;;;;5212929;28;20473;-44
2023/06/09 04:24:10;;;;;;;5.97;5.30;;;17.60;99.70;;;;;;5216076;28;20442;-44
2023/06/09 04:26:41;;;;;;;6.73;5.87;;;17.80;99.10;;;;;;5205616;28;20433;-44
2023/06/09 04:29:12;;;;;;;6.30;5.70;;;17.90;97.50;;;;;;5210952;28;20179;-44
2023/06/09 04:31:44;;;;;;;21.20;6.30;;;18.10;96.30;;;;;;5203888;28;20606;-43
2023/06/09 04:34:15;;;;;;;7.07;5.17;;;18.30;95.00;;;;;;5204553;28;20548;-43
2023/06/09 04:36:47;;;;;;;5.63;5.13;;;18.50;93.60;;;;;;5206351;28;20441;-44
2023/06/09 04:39:17;;;;;;;5.50;5.00;;;18.80;92.30;;;;;;5204357;28;21203;-44
2023/06/09 04:41:48;;;;;;;7.60;5.60;;;19.10;90.10;;;;;;5199513;28;20461;-44
2023/06/09 04:44:20;;;;;;;5.60;5.00;;;19.30;83.30;;;;;;5195233;28;20516;-44
2023/06/09 04:46:51;;;;;;;6.13;4.87;;;19.50;80.40;;;;;;5200343;28;20262;-44
2023/06/09 04:49:23;;;;;;;8.67;4.83;;;19.40;79.20;;;;;;5189722;28;20443;-43
2023/06/09 04:51:54;;;;;;;4.80;4.40;;;19.70;77.90;;;;;;5188161;28;20449;-43
2023/06/09 04:54:28;;;;;;;5.57;4.10;;;20.30;73.20;;;;;;5186079;28;20458;-43
2023/06/09 04:57:00;;;;;;;6.00;3.90;;;21.20;69.10;;;;;;5185803;28;20469;-44
2023/06/09 04:59:31;;;;;;;7.90;3.97;;;21.90;61.00;;;;;;5179366;28;21008;-43
2023/06/09 05:02:02;;;;;;;5.87;3.70;;;22.80;55.60;;;;;;5200773;28;20960;-43
2023/06/09 05:04:33;;;;;;;5.30;3.40;;;23.70;52.20;;;;;;5187506;28;20450;-44
2023/06/09 05:07:06;;;;;;;10.67;4.37;;;23.80;49.40;;;;;;5189706;28;20446;-43
2023/06/09 05:09:37;;;;;;;4.70;4.07;;;23.60;50.00;;;;;;5200088;28;20729;-43
2023/06/09 05:12:07;;;;;;;6.53;3.77;;;23.80;47.80;;;;;;5200803;28;20522;-42
2023/06/09 05:14:41;;;;;;;4.77;4.20;;;24.30;47.60;;;;;;5185829;28;20203;-43
2023/06/09 05:17:12;;;;;;;5.90;4.07;;;24.50;45.90;;;;;;5185219;28;20279;-43
2023/06/09 05:19:42;;;;;;;3.97;3.23;;;25.10;45.10;;;;;;5209653;28;20442;-43
2023/06/09 05:22:13;;;;;;;10.60;3.83;;;25.50;43.90;;;;;;5195789;28;20183;-43
2023/06/09 05:24:43;;;;;;;4.07;3.40;;;25.90;41.70;;;;;;5186626;28;20208;-43
2023/06/09 05:27:14;;;;;;;4.20;3.80;;;26.40;41.30;;;;;;5187591;28;20187;-43
2023/06/09 05:29:45;;;;;;;3.90;3.60;;;27.30;39.30;;;;;;5205495;28;20186;-44
2023/06/09 05:32:15;;;;;;;3.63;3.40;;;28.20;37.50;;;;;;5207802;28;20202;-44
2023/06/09 05:34:46;;;;;;;4.23;3.83;;;29.60;35.90;;;;;;5188006;28;20257;-43
2023/06/09 05:37:17;;;;;;;9.87;2.53;;;30.30;33.10;;;;;;5196759;28;20184;-45
2023/06/09 05:39:47;;;;;;;3.43;3.00;;;30.70;31.60;;;;;;5187334;28;20259;-44
2023/06/09 05:42:18;;;;;;;2.60;2.50;;;30.70;30.90;;;;;;5203011;28;20175;-43
2023/06/09 05:44:52;;;;;;;6.97;2.63;;;30.40;30.00;;;;;;5199773;28;20191;-44
2023/06/09 05:47:22;;;;;;;3.33;2.60;;;29.30;30.70;;;;;;5205352;28;20640;-44
2023/06/09 05:49:53;;;;;;;3.97;3.13;;;27.70;32.70;;;;;;5200546;28;20527;-42
2023/06/09 05:52:24;;;;;;;2.90;2.70;;;26.30;33.80;;;;;;5198984;28;20283;-44
2023/06/09 05:54:55;;;;;;;3.17;2.13;;;26.00;34.70;;;;;;5173056;28;20195;-45
2023/06/09 05:57:29;;;;;;;2.50;2.30;;;26.70;33.10;;;;;;5188952;28;20211;-44
2023/06/09 06:00:00;;;;;;;3.17;2.27;;;28.00;33.20;;;;;;5186676;28;20203;-44
2023/06/09 06:02:31;;;;;;;2.87;2.53;;;29.30;30.30;;;;;;5199764;28;20449;-44
2023/06/09 06:05:03;;;;;;;3.70;3.20;;;29.80;28.90;;;;;;5191251;28;20201;-42
2023/06/09 06:07:36;;;;;;;5.50;3.10;;;29.90;28.50;;;;;;5200532;28;20176;-43
2023/06/09 06:10:07;;;;;;;3.10;2.60;;;29.90;28.30;;;;;;5182627;28;20441;-44
2023/06/09 06:12:38;;;;;;;4.00;2.67;;;30.20;28.40;;;;;;5203039;28;20438;-42
2023/06/09 06:15:09;;;;;;;6.50;2.70;;;30.90;27.60;;;;;;5206868;28;20553;-44
2023/06/09 06:17:40;;;;;;;4.00;2.73;;;31.40;26.80;;;;;;5199630;28;20642;-44
2023/06/09 06:20:14;;;;;;;6.17;3.73;;;31.00;26.90;;;;;;5206008;28;20457;-43
2023/06/09 06:22:46;;;;;;;4.67;3.50;;;29.80;28.30;;;;;;5204950;28;20434;-43
2023/06/09 06:25:17;;;;;;;7.30;3.57;;;28.50;29.20;;;;;;5189074;28;20450;-45
2023/06/09 06:27:48;;;;;;;3.97;3.33;;;26.30;31.80;;;;;;5178066;28;20443;-45
2023/06/09 06:30:18;;;;;;;3.63;3.33;;;24.90;34.30;;;;;;5176674;28;20815;-43
2023/06/09 06:32:51;;;;;;;3.53;3.23;;;24.20;35.80;;;;;;5175931;28;20183;-44
2023/06/09 06:35:31;;;;;;;3.80;3.27;;;24.90;35.20;;;;;;5186602;28;20301;-45
2023/06/09 06:38:01;;;;;;;4.30;3.83;;;25.50;35.50;;;;;;5203923;28;20902;-43
2023/06/09 06:40:33;;;;;;;4.63;3.10;;;26.70;33.40;;;;;;5202768;28;20563;-43
2023/06/09 06:43:03;;;;;;;3.53;2.97;;;27.20;32.80;;;;;;5204379;28;20342;-42
2023/06/09 06:45:34;;;;;;;7.20;2.93;;;28.70;31.20;;;;;;5185478;28;20547;-44
2023/06/09 06:48:05;;;;;;;2.97;2.73;;;29.50;29.20;;;;;;5195890;28;20180;-44
2023/06/09 06:50:37;;;;;;;4.80;2.60;;;29.50;28.40;;;;;;5173676;28;20204;-42
2023/06/09 06:53:08;;;;;;;3.20;2.97;;;28.80;29.20;;;;;;5189852;28;20448;-43
2023/06/09 06:55:39;;;;;;;3.03;2.83;;;28.30;29.70;;;;;;5205263;28;20463;-44
2023/06/09 06:58:09;;;;;;;4.23;3.33;;;29.40;29.40;;;;;;5183063;28;20438;-45
2023/06/09 07:00:40;;;;;;;4.93;2.33;;;30.70;28.50;;;;;;5201665;28;20201;-44
2023/06/09 07:03:12;;;;;;;2.57;2.37;;;31.30;27.80;;;;;;5204116;28;20632;-44
2023/06/09 07:05:43;;;;;;;2.97;2.73;;;31.10;27.50;;;;;;5205668;28;20206;-43
2023/06/09 07:08:14;;;;;;;3.40;2.83;;;29.90;28.20;;;;;;5168926;28;20434;-42
2023/06/09 07:10:45;;;;;;;3.40;2.90;;;28.90;29.20;;;;;;5201696;28;21055;-44
2023/06/09 07:13:16;;;;;;;2.53;2.43;;;27.40;30.90;;;;;;5202650;28;20188;-43
2023/06/09 07:15:46;;;;;;;7.77;3.27;;;27.10;32.70;;;;;;5191716;28;20199;-44
2023/06/09 07:18:17;;;;;;;4.57;2.97;;;29.40;30.20;;;;;;5204318;28;20547;-45
2023/06/09 07:20:48;;;;;;;3.90;2.87;;;31.50;28.50;;;;;;5192028;28;20214;-45
2023/06/09 07:23:19;;;;;;;4.53;2.90;;;33.10;26.60;;;;;;5185688;28;20613;-44
2023/06/09 07:25:49;;;;;;;3.13;2.93;;;32.30;26.40;;;;;;5185767;28;20541;-42
2023/06/09 07:28:20;;;;;;;2.87;2.63;;;30.20;28.50;;;;;;5195432;28;20192;-42
2023/06/09 07:30:51;;;;;;;3.93;2.73;;;28.40;30.10;;;;;;5198067;28;20184;-43
2023/06/09 07:33:22;;;;;;;4.20;2.63;;;27.10;31.90;;;;;;5196004;28;20183;-44
2023/06/09 07:35:53;;;;;;;3.77;2.83;;;26.10;33.70;;;;;;5191954;28;21025;-42
2023/06/09 07:38:27;;;;;;;7.50;3.07;;;25.40;34.80;;;;;;5180186;28;20329;-44
2023/06/09 07:40:58;;;;;;;7.63;3.23;;;24.90;35.90;;;;;;5201470;28;20215;-42
2023/06/09 07:43:28;;;;;;;4.20;2.27;;;24.60;36.30;;;;;;5210538;28;20448;-42
2023/06/09 07:45:59;;;;;;;3.00;2.60;;;24.30;37.00;;;;;;5206990;28;20238;-43
2023/06/09 07:48:30;;;;;;;4.50;3.37;;;24.00;37.20;;;;;;5192180;28;20581;-43
2023/06/09 07:51:03;;;;;;;6.53;2.10;;;24.00;37.80;;;;;;5188522;28;20282;-44
2023/06/09 07:53:35;;;;;;;2.87;2.60;;;24.20;37.60;;;;;;5196305;28;20203;-44
2023/06/09 07:56:06;;;;;;;3.23;2.60;;;24.40;37.30;;;;;;5201634;28;20458;-42
2023/06/09 07:58:37;;;;;;;8.33;3.07;;;24.50;37.20;;;;;;5188694;28;20445;-42
2023/06/09 08:01:07;;;;;;;3.23;2.90;;;24.30;37.60;;;;;;5206603;28;20200;-44
2023/06/09 08:03:38;;;;;;;4.27;3.47;;;24.30;38.00;;;;;;5209440;28;20179;-43
2023/06/09 08:06:09;;;;;;;3.10;2.93;;;24.40;38.00;;;;;;5193346;28;20518;-42
2023/06/09 08:08:41;;;;;;;3.30;3.03;;;24.50;38.00;;;;;;5191902;28;20175;-42
2023/06/09 08:11:12;;;;;;;8.67;2.93;;;24.70;37.90;;;;;;5215811;28;20444;-44
2023/06/09 08:13:42;;;;;;;3.23;2.87;;;24.90;37.80;;;;;;5193274;28;20441;-43
2023/06/09 08:16:13;;;;;;;3.50;2.83;;;24.90;38.00;;;;;;5182938;28;20204;-42
2023/06/09 08:18:43;;;;;;;4.23;3.77;;;24.70;38.60;;;;;;5216161;28;20182;-42
2023/06/09 08:21:14;;;;;;;3.77;2.80;;;24.50;39.00;;;;;;5191472;28;20200;-42
2023/06/09 08:23:45;;;;;;;3.53;2.70;;;24.40;39.50;;;;;;5211101;28;20179;-43
2023/06/09 08:26:15;;;;;;;3.10;2.70;;;24.10;39.10;;;;;;5205465;28;20175;-42
2023/06/09 08:28:46;;;;;;;4.93;2.80;;;24.10;39.70;;;;;;5204824;28;20233;-42
2023/06/09 08:31:17;;;;;;;3.90;2.97;;;24.10;37.60;;;;;;5173414;28;20198;-43
2023/06/09 08:33:48;;;;;;;3.17;2.97;;;24.40;38.10;;;;;;5207719;28;20196;-44
2023/06/09 08:36:18;;;;;;;5.20;2.93;;;24.70;37.60;;;;;;5189169;28;21517;-48
2023/06/09 08:38:49;;;;;;;15.80;3.80;;;24.70;37.70;;;;;;5204965;28;20187;-43
2023/06/09 08:41:24;;;;;;;3.70;3.40;;;24.70;37.90;;;;;;5199506;28;20219;-44
2023/06/09 08:43:55;;;;;;;5.30;2.77;;;24.60;37.40;;;;;;5189538;28;20246;-42
2023/06/09 08:46:32;;;;;;;3.00;2.77;;;24.50;37.90;;;;;;5178438;28;20442;-45
2023/06/09 08:49:03;;;;;;;2.83;2.63;;;24.90;38.10;;;;;;5201808;28;20434;-45
2023/06/09 08:51:37;;;;;;;3.03;2.80;;;26.00;36.70;;;;;;5187761;28;20442;-43
2023/06/09 08:54:09;;;;;;;3.30;2.93;;;26.90;35.10;;;;;;5203281;28;20578;-43
2023/06/09 08:56:40;;;;;;;3.17;2.80;;;27.30;34.30;;;;;;5186717;28;20489;-43
2023/06/09 08:59:12;;;;;;;3.20;3.00;;;27.50;32.80;;;;;;5208108;28;20438;-43
2023/06/09 09:01:43;;;;;;;2.50;2.40;;;27.40;33.10;;;;;;5188750;28;20453;-43
2023/06/09 09:04:14;;;;;;;4.03;2.87;;;27.40;32.80;;;;;;5205842;28;20994;-43
2023/06/09 09:06:45;;;;;;;2.80;2.60;;;27.40;32.90;;;;;;5209520;28;20438;-43
2023/06/09 09:09:16;;;;;;;4.73;3.77;;;27.00;33.20;;;;;;5192536;28;20179;-44
2023/06/09 09:11:56;;;;;;;8.33;2.90;;;27.10;33.90;;;;;;5191883;28;20958;-47
2023/06/09 09:14:27;;;;;;;2.70;2.20;;;27.20;33.60;;;;;;5206594;28;20261;-44
2023/06/09 09:16:58;;;;;;;4.63;3.07;;;27.40;33.20;;;;;;5204775;28;20441;-43
2023/06/09 09:19:30;;;;;;;6.03;3.13;;;27.40;33.70;;;;;;5207650;28;20188;-41
2023/06/09 09:22:07;;;;;;;10.40;3.10;;;27.60;34.20;;;;;;5209825;28;20761;-43
2023/06/09 09:24:43;;;;;;;9.00;4.20;;;27.60;34.60;;;;;;5209234;28;20488;-43
2023/06/09 09:27:19;;;;;;;7.63;3.33;;;27.40;35.20;;;;;;5191021;28;20459;-42
2023/06/09 09:29:50;;;;;;;8.53;3.83;;;27.20;35.80;;;;;;5205190;28;20926;-43
2023/06/09 09:32:25;;;;;;;3.13;2.93;;;27.00;36.30;;;;;;5212279;28;20511;-44
2023/06/09 09:34:56;;;;;;;9.17;3.27;;;26.60;36.70;;;;;;5192353;28;20223;-43
2023/06/09 09:37:26;;;;;;;6.73;3.53;;;26.30;36.80;;;;;;5209328;28;21030;-43
2023/06/09 09:39:57;;;;;;;14.23;2.87;;;26.30;36.80;;;;;;5190753;28;20198;-42
2023/06/09 09:42:28;;;;;;;4.60;3.10;;;26.40;36.90;;;;;;5206610;28;20555;-42
2023/06/09 09:45:04;;;;;;;2.90;2.73;;;26.40;36.80;;;;;;5206337;28;20200;-42
2023/06/09 09:47:35;;;;;;;5.13;3.40;;;26.50;36.80;;;;;;5193208;28;20434;-42
2023/06/09 09:50:10;;;;;;;4.43;3.07;;;26.50;36.50;;;;;;5207707;28;20434;-42
2023/06/09 09:52:42;;;;;;;5.00;2.73;;;26.50;36.60;;;;;;5207442;28;20433;-43
2023/06/09 09:55:13;;;;;;;2.10;2.00;;;26.50;37.00;;;;;;5218589;28;20461;-44
2023/06/09 09:57:45;;;;;;;3.23;2.97;;;26.40;36.80;;;;;;5195154;28;20554;-43
2023/06/09 10:00:17;;;;;;;6.50;3.20;;;26.50;36.80;;;;;;5213047;28;20480;-43
2023/06/09 10:02:53;;;;;;;7.03;4.07;;;26.60;37.10;;;;;;5172881;28;20435;-43
2023/06/09 10:05:26;;;;;;;4.13;3.60;;;26.40;37.00;;;;;;5206795;28;20801;-43
2023/06/09 10:08:00;;;;;;;5.07;3.43;;;26.30;38.10;;;;;;5212688;28;20441;-43
2023/06/09 10:10:31;;;;;;;3.83;3.60;;;26.50;38.10;;;;;;5190955;28;20471;-45
2023/06/09 10:13:03;;;;;;;4.97;3.40;;;26.80;37.90;;;;;;5209951;28;20434;-43
2023/06/09 10:15:34;;;;;;;4.33;3.27;;;27.00;38.50;;;;;;5167747;28;21117;-45
2023/06/09 10:18:06;;;;;;;6.30;3.50;;;27.10;38.70;;;;;;5204320;28;20529;-44
2023/06/09 10:20:38;;;;;;;4.40;3.30;;;27.50;39.00;;;;;;5213029;28;20465;-43
2023/06/09 10:23:09;;;;;;;5.90;3.23;;;27.60;37.50;;;;;;5211341;28;20425;-44
2023/06/09 10:25:41;;;;;;;4.90;2.93;;;27.40;36.70;;;;;;5187631;28;20573;-44
2023/06/09 10:28:12;;;;;;;3.07;2.87;;;27.40;36.20;;;;;;5206932;28;20874;-45
2023/06/09 10:30:50;;;;;;;3.10;2.90;;;27.30;35.40;;;;;;5207948;28;20438;-44
2023/06/09 10:33:32;;;;;;;3.37;3.07;;;27.30;36.20;;;;;;5212701;28;20433;-43
2023/06/09 10:36:09;;;;;;;3.20;2.90;;;27.30;35.60;;;;;;5187415;28;20501;-43
2023/06/09 10:38:53;;;;;;;7.00;2.90;;;27.40;34.80;;;;;;5210858;28;20452;-41
2023/06/09 10:41:28;;;;;;;2.43;2.33;;;27.40;34.80;;;;;;5204890;28;20529;-44
2023/06/09 10:44:25;;;;;;;4.00;3.60;;;27.60;34.70;;;;;;5205192;28;20441;-43
2023/06/09 10:46:56;;;;;;;6.90;3.37;;;27.60;34.70;;;;;;5202579;28;20442;-43
2023/06/09 10:49:36;;;;;;;3.90;2.97;;;27.40;35.20;;;;;;5166778;28;20437;-43
2023/06/09 10:52:27;;;;;;;7.10;2.83;;;27.40;35.70;;;;;;5204534;28;20241;-43
2023/06/09 10:55:15;;;;;;;7.90;3.60;;;27.50;34.70;;;;;;5179775;28;20462;-43
2023/06/09 10:57:46;;;;;;;4.27;2.70;;;27.30;34.80;;;;;;5195850;28;20832;-43
2023/06/09 11:00:17;;;;;;;6.43;3.07;;;27.20;35.20;;;;;;5204617;28;20549;-43
2023/06/09 11:02:49;;;;;;;2.93;2.73;;;27.20;35.70;;;;;;5208906;28;20187;-44
2023/06/09 11:05:21;;;;;;;5.90;2.83;;;27.30;35.60;;;;;;5202647;28;20449;-44
2023/06/09 11:08:04;;;;;;;2.97;2.87;;;27.40;35.40;;;;;;5208118;28;20442;-43
2023/06/09 11:10:36;;;;;;;3.73;3.40;;;27.50;34.50;;;;;;5209830;28;20907;-43
2023/06/09 11:13:41;;;;;;;3.30;2.93;;;27.50;35.00;;;;;;5181887;28;20442;-44
2023/06/09 11:16:12;;;;;;;9.93;3.10;;;27.60;34.80;;;;;;5196486;28;20457;-45
2023/06/09 11:18:42;;;;;;;3.53;3.23;;;27.70;34.60;;;;;;5194355;28;20438;-45
2023/06/09 11:21:19;;;;;;;4.57;3.10;;;27.70;34.60;;;;;;5194318;28;20234;-44
2023/06/09 11:24:00;;;;;;;5.80;2.60;;;27.70;34.50;;;;;;5191308;28;20175;-45
2023/06/09 11:26:32;;;;;;;5.00;3.07;;;27.70;34.10;;;;;;5184368;28;20454;-45
2023/06/09 11:29:16;;;;;;;4.77;3.40;;;27.70;34.00;;;;;;5198721;28;20430;-46
2023/06/09 11:31:48;;;;;;;20.63;7.87;;;27.70;33.80;;;;;;5179411;28;20811;-45
2023/06/09 11:34:55;;;;;;;4.83;2.73;;;27.50;34.10;;;;;;5207068;28;20480;-45
2023/06/09 11:37:26;;;;;;;3.80;3.10;;;27.50;34.60;;;;;;5194246;28;20548;-46
2023/06/09 11:39:57;;;;;;;4.10;3.70;;;27.60;34.40;;;;;;5196607;28;20513;-45
2023/06/09 11:42:31;;;;;;;3.27;2.90;;;27.70;33.60;;;;;;5197574;28;20194;-46
2023/06/09 11:45:05;;;;;;;4.87;3.97;;;27.80;33.50;;;;;;5171846;28;20195;-45
2023/06/09 11:47:35;;;;;;;3.20;2.97;;;27.70;33.30;;;;;;5187078;28;20938;-45
2023/06/09 11:50:11;;;;;;;3.67;2.93;;;27.60;33.30;;;;;;5183056;28;20442;-53
2023/06/09 11:52:43;;;;;;;3.30;3.10;;;27.60;33.90;;;;;;5200717;28;20192;-47
2023/06/09 11:55:17;;;;;;;5.13;3.73;;;27.70;34.30;;;;;;5201840;28;20540;-45
2023/06/09 11:57:48;;;;;;;2.97;2.87;;;27.90;33.40;;;;;;5203918;28;20942;-45
2023/06/09 12:00:19;;;;;;;2.83;2.73;;;27.80;33.10;;;;;;5183581;28;20558;-45
2023/06/09 12:02:50;;;;;;;3.33;2.80;;;27.80;33.20;;;;;;5202753;28;20512;-44
2023/06/09 12:05:21;;;;;;;2.90;2.80;;;27.90;33.10;;;;;;5190355;28;20206;-45
2023/06/09 12:07:53;;;;;;;3.60;3.10;;;27.90;33.50;;;;;;5175247;28;20172;-46
2023/06/09 12:10:27;;;;;;;3.10;2.90;;;27.90;32.60;;;;;;5203058;28;20442;-48
2023/06/09 12:12:58;;;;;;;7.70;3.00;;;27.90;32.60;;;;;;5175060;28;20435;-46
2023/06/09 12:15:30;;;;;;;3.20;3.00;;;27.90;33.30;;;;;;5193191;28;20458;-46
2023/06/09 12:18:01;;;;;;;2.90;2.70;;;27.90;33.00;;;;;;5178453;28;20449;-46
2023/06/09 12:20:34;;;;;;;9.53;4.10;;;27.90;32.90;;;;;;5192611;28;21005;-46
2023/06/09 12:23:12;;;;;;;6.03;3.20;;;27.90;32.90;;;;;;5192798;28;20829;-47
2023/06/09 12:25:51;;;;;;;3.67;3.47;;;28.00;32.50;;;;;;5195094;28;20438;-47
2023/06/09 12:28:24;;;;;;;3.73;2.90;;;28.10;33.00;;;;;;5196814;28;20430;-52
2023/06/09 12:30:56;;;;;;;4.43;2.67;;;28.20;32.10;;;;;;5186021;28;20430;-46
2023/06/09 12:33:29;;;;;;;5.03;2.73;;;28.20;32.30;;;;;;5199482;28;20840;-46
2023/06/09 12:36:09;;;;;;;2.83;2.73;;;28.20;31.50;;;;;;5193136;28;20527;-47
2023/06/09 12:38:43;;;;;;;3.70;3.10;;;28.20;31.70;;;;;;5159036;28;20438;-46
2023/06/09 12:41:16;;;;;;;8.10;3.10;;;28.10;32.00;;;;;;5187986;28;20865;-50
2023/06/09 12:43:51;;;;;;;3.30;3.00;;;28.10;32.20;;;;;;5193030;28;20427;-47
2023/06/09 12:46:36;;;;;;;3.03;2.83;;;28.10;32.30;;;;;;5190871;28;20514;-47
2023/06/09 12:49:10;;;;;;;2.93;2.73;;;28.10;32.00;;;;;;5187844;28;20434;-47
2023/06/09 12:51:41;;;;;;;7.07;3.00;;;28.10;32.80;;;;;;5186210;28;20537;-48
2023/06/09 12:54:13;;;;;;;3.43;3.13;;;28.10;32.10;;;;;;5187025;28;20789;-46
2023/06/09 12:56:43;;;;;;;6.53;3.30;;;28.00;32.00;;;;;;5187065;28;20191;-47
2023/06/09 12:59:14;;;;;;;3.33;3.13;;;28.00;33.20;;;;;;5171794;28;20449;-46
2023/06/09 13:01:47;;;;;;;3.50;3.30;;;28.10;32.40;;;;;;5185231;28;20227;-48
2023/06/09 13:04:18;;;;;;;3.90;3.60;;;28.30;31.80;;;;;;5172057;28;20196;-47
2023/06/09 13:06:49;;;;;;;10.03;3.63;;;28.30;31.70;;;;;;5193118;28;20442;-46
2023/06/09 13:09:20;;;;;;;3.47;3.17;;;28.20;31.70;;;;;;5201427;28;20437;-47
2023/06/09 13:11:50;;;;;;;3.53;3.07;;;28.20;31.50;;;;;;5203872;28;20282;-46
2023/06/09 13:14:21;;;;;;;4.10;3.70;;;28.20;32.10;;;;;;5201686;28;20246;-48